Time;durP1;ratioP1;P1;durP2;ratioP2;P2;SDS_P1;SDS_P2;PMS_P1;PMS_P2;Temp;Humidity;BMP_temperature;BMP_pressure;BME280_temperature;BME280_humidity;BME280_pressure;Samples;Min_cycle;Max_cycle;Signal;HPM_P1;HPM_P2
2021/08/24 00:00:49;;;;;;;1487.90;923.13;;;;;;;19.61;48.49;93602.31;5057922;28;20104;-45
2021/08/24 00:03:15;;;;;;;1655.47;968.92;;;;;;;19.52;48.48;93616.41;5054607;28;20444;-45
2021/08/24 00:05:41;;;;;;;1688.45;924.47;;;;;;;19.54;48.99;93617.25;5049473;28;20021;-42
2021/08/24 00:08:07;;;;;;;1768.72;955.53;;;;;;;19.53;48.55;93620.69;5056614;28;20081;-43
2021/08/24 00:10:41;;;;;;;1499.78;897.83;;;;;;;19.52;48.88;93619.94;5059293;28;20031;-43
2021/08/24 00:13:07;;;;;;;1999.90;999.90;;;;;;;19.46;48.98;93621.63;5059342;28;20024;-43
2021/08/24 00:15:33;;;;;;;1999.90;999.90;;;;;;;19.34;49.14;93604.03;5057234;28;20031;-42
2021/08/24 00:18:00;;;;;;;1999.90;999.90;;;;;;;19.45;49.13;93615.28;5056941;28;20136;-44
2021/08/24 00:20:30;;;;;;;1999.90;999.90;;;;;;;19.42;49.48;93621.38;5058312;28;20108;-46
2021/08/24 00:22:57;;;;;;;1999.90;999.90;;;;;;;19.23;49.60;93594.22;5057819;28;20048;-45
2021/08/24 00:25:23;;;;;;;1930.53;999.90;;;;;;;19.32;50.03;93615.06;5059734;28;20025;-45
2021/08/24 00:27:48;;;;;;;1800.22;982.22;;;;;;;19.26;49.98;93618.22;5059087;28;20020;-44
2021/08/24 00:30:14;;;;;;;1657.82;933.17;;;;;;;19.18;50.12;93623.31;5057347;28;20456;-45
2021/08/24 00:32:39;;;;;;;1463.70;865.58;;;;;;;19.12;50.27;93620.13;5057805;28;20016;-45
2021/08/24 00:35:05;;;;;;;1383.20;853.30;;;;;;;19.03;50.57;93611.78;5058891;28;20055;-43
2021/08/24 00:37:31;;;;;;;1354.82;843.45;;;;;;;19.01;50.39;93615.19;5056862;28;20021;-43
2021/08/24 00:39:56;;;;;;;1057.78;766.47;;;;;;;18.91;50.76;93611.72;5056416;28;20074;-44
2021/08/24 00:42:22;;;;;;;1028.28;714.25;;;;;;;18.87;50.87;93612.19;5056498;28;20008;-43
2021/08/24 00:44:51;;;;;;;980.40;667.35;;;;;;;18.78;51.45;93617.84;5058106;28;20048;-45
2021/08/24 00:47:19;;;;;;;889.75;620.53;;;;;;;18.72;51.80;93611.84;5056987;28;20051;-44
2021/08/24 00:49:46;;;;;;;783.58;530.83;;;;;;;18.60;51.99;93611.06;5057387;28;20119;-43
2021/08/24 00:52:15;;;;;;;664.85;484.23;;;;;;;18.54;52.31;93608.56;5056488;28;20031;-43
2021/08/24 00:54:44;;;;;;;546.65;391.70;;;;;;;18.49;52.88;93612.44;5048829;28;20108;-43
2021/08/24 00:57:10;;;;;;;;;;;;;;;18.44;52.45;93609.94;5048533;28;20021;-43
2021/08/24 00:59:36;;;;;;;607.03;434.08;;;;;;;18.39;53.10;93613.78;5064708;28;20360;-42
2021/08/24 01:02:01;;;;;;;361.42;293.67;;;;;;;18.28;53.14;93601.19;5065481;28;20029;-43
2021/08/24 01:04:29;;;;;;;319.98;244.13;;;;;;;18.27;53.11;93612.97;5071118;28;20028;-43
2021/08/24 01:07:16;;;;;;;251.18;187.85;;;;;;;18.16;53.16;93614.34;5072289;28;20478;-43
2021/08/24 01:09:42;;;;;;;222.68;187.20;;;;;;;18.16;53.41;93603.16;5072329;28;20024;-43
2021/08/24 01:12:30;;;;;;;234.48;165.40;;;;;;;18.12;53.43;93600.09;5072277;28;20033;-43
2021/08/24 01:15:01;;;;;;;222.50;166.05;;;;;;;18.03;53.87;93607.19;5070751;28;20028;-42
2021/08/24 01:17:41;;;;;;;192.25;130.32;;;;;;;17.93;54.01;93606.47;5052502;28;20025;-43
2021/08/24 01:20:27;;;;;;;161.98;111.43;;;;;;;17.89;54.43;93599.88;5051126;28;20029;-43
2021/08/24 01:23:17;;;;;;;129.00;93.15;;;;;;;17.77;55.03;93599.78;5051444;28;20033;-44
2021/08/24 01:25:56;;;;;;;114.00;88.97;;;;;;;17.77;55.29;93587.88;5052320;28;20032;-44
2021/08/24 01:28:43;;;;;;;116.60;80.50;;;;;;;17.70;55.38;93585.97;5051776;28;20040;-44
2021/08/24 01:31:15;;;;;;;116.13;82.07;;;;;;;17.57;55.20;93587.19;5051857;28;20029;-44
2021/08/24 01:33:54;;;;;;;84.28;63.75;;;;;;;17.56;55.76;93582.94;5051888;28;20056;-44
2021/08/24 01:36:39;;;;;;;;;;;;;;;17.50;55.85;93585.28;5052703;28;20131;-43
2021/08/24 01:39:09;;;;;;;131.63;89.40;;;;;;;17.49;55.78;93581.00;5050871;28;19915;-43
2021/08/24 01:41:52;;;;;;;89.60;58.25;;;;;;;17.47;56.48;93585.72;5054690;28;20158;-45
2021/08/24 01:44:20;;;;;;;75.55;49.30;;;;;;;17.37;56.53;93583.66;5063983;28;20028;-44
2021/08/24 01:47:05;;;;;;;84.00;50.03;;;;;;;17.28;56.60;93583.69;5051424;28;20491;-43
2021/08/24 01:49:52;;;;;;;91.55;58.15;;;;;;;17.21;56.91;93588.13;5051900;28;20029;-43
2021/08/24 01:52:20;;;;;;;87.65;52.97;;;;;;;17.13;56.59;93578.44;5049947;28;20025;-44
2021/08/24 01:54:57;;;;;;;66.45;44.67;;;;;;;17.06;56.84;93585.63;5050548;28;20041;-43
2021/08/24 01:57:27;;;;;;;68.32;44.75;;;;;;;17.10;57.08;93587.97;5049993;28;20509;-45
2021/08/24 02:00:01;;;;;;;78.93;47.67;;;;;;;17.05;57.18;93581.34;5050068;28;20418;-44
2021/08/24 02:02:33;;;;;;;63.65;37.78;;;;;;;16.94;57.97;93575.63;5069279;28;20547;-44
2021/08/24 02:05:16;;;;;;;68.95;36.95;;;;;;;16.90;58.05;93578.13;5070169;28;20720;-44
2021/08/24 02:07:43;;;;;;;72.43;37.72;;;;;;;16.78;58.57;93575.22;5071160;28;20073;-44
2021/08/24 02:10:13;;;;;;;46.58;28.95;;;;;;;16.80;58.35;93575.34;5070349;28;20036;-45
2021/08/24 02:12:41;;;;;;;53.78;31.42;;;;;;;16.69;58.78;93575.94;5057365;28;20029;-46
2021/08/24 02:15:08;;;;;;;57.85;28.50;;;;;;;16.67;58.52;93581.38;5049931;28;20147;-45
2021/08/24 02:17:35;;;;;;;55.78;33.80;;;;;;;16.54;58.67;93570.63;5051251;28;20029;-46
2021/08/24 02:20:06;;;;;;;40.28;32.80;;;;;;;16.54;58.28;93573.44;5051361;28;20032;-46
2021/08/24 02:22:34;;;;;;;57.25;30.27;;;;;;;16.42;58.65;93567.66;5051223;28;20021;-45
2021/08/24 02:25:16;;;;;;;48.97;33.23;;;;;;;16.43;58.62;93565.59;5050100;28;20120;-45
2021/08/24 02:27:59;;;;;;;43.67;27.17;;;;;;;16.29;59.20;93559.72;5049736;28;20108;-46
2021/08/24 02:30:25;;;;;;;38.65;24.45;;;;;;;16.28;59.36;93565.88;5050748;28;20486;-45
2021/08/24 02:32:51;;;;;;;41.50;28.73;;;;;;;16.22;59.73;93562.63;5049825;28;20032;-45
2021/08/24 02:35:16;;;;;;;36.13;28.13;;;;;;;16.29;59.73;93565.28;5049786;28;20028;-44
2021/08/24 02:37:48;;;;;;;52.00;30.83;;;;;;;16.27;59.75;93553.97;5050562;28;20119;-45
2021/08/24 02:40:27;;;;;;;47.47;28.60;;;;;;;16.18;60.13;93546.34;5049801;28;20465;-44
2021/08/24 02:43:08;;;;;;;35.28;25.38;;;;;;;16.19;59.97;93549.88;5065109;28;20034;-44
2021/08/24 02:45:37;;;;;;;51.88;30.35;;;;;;;16.17;60.25;93558.81;5052174;28;20430;-44
2021/08/24 02:48:06;;;;;;;40.67;27.50;;;;;;;16.09;60.26;93546.34;5058748;28;20032;-44
2021/08/24 02:50:32;;;;;;;42.88;29.27;;;;;;;16.07;60.23;93546.91;5069099;28;20028;-44
2021/08/24 02:52:57;;;;;;;40.00;25.85;;;;;;;16.09;60.11;93540.75;5069527;28;20032;-44
2021/08/24 02:55:23;;;;;;;32.40;21.48;;;;;;;16.00;59.75;93547.03;5069089;28;20031;-45
2021/08/24 02:57:48;;;;;;;35.50;23.17;;;;;;;15.91;59.89;93540.88;5070158;28;20033;-44
2021/08/24 03:00:15;;;;;;;40.22;22.15;;;;;;;15.81;59.91;93528.94;5070509;28;20028;-46
2021/08/24 03:02:40;;;;;;;38.42;23.02;;;;;;;15.92;59.96;93539.53;5070250;28;20025;-45
2021/08/24 03:05:07;;;;;;;36.92;28.80;;;;;;;15.82;60.02;93546.38;5070464;28;20398;-45
2021/08/24 03:07:33;;;;;;;22.05;19.83;;;;;;;15.79;60.35;93553.09;5069099;28;20020;-45
2021/08/24 03:10:03;;;;;;;22.67;19.85;;;;;;;15.75;60.70;93553.53;5050082;28;20505;-45
2021/08/24 03:12:34;;;;;;;31.10;23.23;;;;;;;15.65;60.69;93554.81;5048874;28;20416;-46
2021/08/24 03:15:17;;;;;;;32.58;21.95;;;;;;;15.53;60.69;93553.88;5048830;28;20033;-46
2021/08/24 03:17:54;;;;;;;27.13;19.13;;;;;;;15.56;60.61;93555.50;5050147;28;20031;-45
2021/08/24 03:20:21;;;;;;;22.23;17.75;;;;;;;15.51;61.01;93550.94;5050250;28;20078;-46
2021/08/24 03:22:48;;;;;;;43.03;21.35;;;;;;;15.47;61.38;93556.94;5049682;28;20472;-45
2021/08/24 03:25:14;;;;;;;24.38;20.13;;;;;;;15.44;61.60;93551.81;5050090;28;20048;-45
2021/08/24 03:27:42;;;;;;;31.33;21.92;;;;;;;15.44;61.86;93549.72;5048995;28;20490;-45
2021/08/24 03:30:11;;;;;;;23.40;20.00;;;;;;;15.45;61.85;93554.00;5049807;28;20035;-45
2021/08/24 03:32:37;;;;;;;27.83;13.02;;;;;;;15.39;62.08;93545.16;5050011;28;20025;-43
2021/08/24 03:35:03;;;;;;;33.40;22.00;;;;;;;15.44;62.02;93558.06;5049974;28;20499;-43
2021/08/24 03:37:29;;;;;;;27.52;19.00;;;;;;;15.47;61.43;93553.41;5073547;28;20032;-48
2021/08/24 03:39:54;;;;;;;23.63;18.63;;;;;;;15.41;61.27;93552.91;5089587;28;20413;-47
2021/08/24 03:42:20;;;;;;;36.22;23.20;;;;;;;15.39;60.86;93549.97;5078610;28;20048;-44
2021/08/24 03:44:46;;;;;;;33.05;17.55;;;;;;;15.35;61.17;93547.63;5057629;28;20109;-44
2021/08/24 04:24:06;;;;;;;13.02;8.63;;;;;;;16.04;58.85;93558.47;5107381;27;20612;-45
2021/08/24 04:26:32;;;;;;;29.80;13.93;;;;;;;15.85;59.53;93554.31;5107397;28;20036;-47
2021/08/24 04:28:57;;;;;;;74.45;18.45;;;;;;;15.72;60.25;93565.81;5107619;28;20016;-45
2021/08/24 04:31:23;;;;;;;104.60;19.08;;;;;;;15.58;60.62;93561.97;5107611;28;20028;-47
2021/08/24 04:33:48;;;;;;;32.08;13.30;;;;;;;15.49;61.54;93559.88;5107612;28;20028;-45
2021/08/24 04:36:14;;;;;;;25.23;17.23;;;;;;;15.43;61.88;93551.06;5107278;28;20024;-46
2021/08/24 04:38:39;;;;;;;18.20;14.27;;;;;;;15.43;62.02;93550.28;5107204;28;20023;-46
2021/08/24 04:41:06;;;;;;;15.52;13.85;;;;;;;15.42;61.67;93560.69;5106934;28;20024;-46
2021/08/24 04:43:32;;;;;;;23.38;13.73;;;;;;;15.48;61.96;93557.69;5107040;28;20415;-46
2021/08/24 04:45:57;;;;;;;24.40;12.50;;;;;;;15.48;62.17;93558.41;5107369;28;20031;-47
2021/08/24 04:48:23;;;;;;;11.65;9.52;;;;;;;15.52;62.68;93550.38;5106875;28;20016;-47
2021/08/24 04:50:48;;;;;;;31.40;17.27;;;;;;;15.64;62.33;93558.91;5106966;28;20114;-46
2021/08/24 04:53:14;;;;;;;34.15;15.77;;;;;;;15.69;62.01;93561.44;5107146;28;20032;-47
2021/08/24 04:55:40;;;;;;;17.48;11.73;;;;;;;15.68;62.25;93562.75;5107121;28;20511;-47
2021/08/24 04:58:06;;;;;;;17.08;12.02;;;;;;;15.69;61.80;93567.00;5107043;28;20081;-47
2021/08/24 05:00:33;;;;;;;34.72;15.23;;;;;;;15.76;64.26;93573.78;5093654;28;20020;-49
2021/08/24 05:02:58;;;;;;;26.98;13.73;;;;;;;15.72;62.54;93560.25;5093462;28;20099;-45
2021/08/24 05:05:24;;;;;;;18.35;13.35;;;;;;;15.78;62.50;93569.09;5078439;28;20021;-45
2021/08/24 05:07:50;;;;;;;33.78;17.42;;;;;;;15.84;62.89;93574.38;5072829;28;20031;-45
2021/08/24 05:10:15;;;;;;;51.28;30.40;;;;;;;15.75;63.67;93536.09;5073029;28;20035;-45
2021/08/24 05:12:41;;;;;;;26.27;14.07;;;;;;;16.01;63.44;93567.97;5073108;28;20443;-45
2021/08/24 05:15:07;;;;;;;77.68;18.70;;;;;;;16.06;63.14;93573.28;5072958;28;20025;-46
2021/08/24 05:17:32;;;;;;;23.55;12.55;;;;;;;16.17;61.80;93569.22;5073009;28;20021;-44
2021/08/24 05:19:58;;;;;;;20.70;13.18;;;;;;;16.27;62.16;93569.97;5072959;28;20485;-45
2021/08/24 05:22:23;;;;;;;23.95;10.90;;;;;;;16.39;62.42;93570.88;5072366;28;20532;-44
2021/08/24 05:24:49;;;;;;;12.82;9.00;;;;;;;16.47;61.88;93568.69;5072927;28;20420;-45
2021/08/24 05:27:14;;;;;;;23.05;13.18;;;;;;;16.56;61.77;93571.53;5072338;28;20023;-45
2021/08/24 05:29:40;;;;;;;18.65;12.18;;;;;;;16.62;61.79;93563.59;5072755;28;20029;-45
2021/08/24 05:32:06;;;;;;;19.67;12.27;;;;;;;16.69;62.41;93567.56;5071594;28;20024;-45
2021/08/24 05:34:31;;;;;;;29.25;14.52;;;;;;;16.80;61.08;93567.00;5072660;28;20024;-44
2021/08/24 05:36:57;;;;;;;17.77;9.20;;;;;;;16.95;61.73;93569.47;5072602;28;20409;-46
2021/08/24 05:39:22;;;;;;;23.75;13.95;;;;;;;17.07;61.91;93575.19;5072434;28;20024;-44
2021/08/24 05:41:48;;;;;;;23.00;14.25;;;;;;;17.17;60.63;93575.94;5077791;28;20067;-46
2021/08/24 05:44:13;;;;;;;20.83;16.35;;;;;;;17.19;61.53;93559.31;5091189;28;20016;-45
2021/08/24 05:46:39;;;;;;;40.72;13.98;;;;;;;17.39;59.91;93574.69;5092700;28;20034;-47
2021/08/24 05:49:05;;;;;;;124.63;22.58;;;;;;;17.49;58.95;93571.91;5092556;28;20027;-45
2021/08/24 05:51:31;;;;;;;33.22;13.35;;;;;;;17.50;58.66;93557.38;5092491;28;20133;-45
2021/08/24 05:53:56;;;;;;;51.30;15.73;;;;;;;17.72;59.05;93575.69;5092470;28;20028;-45
2021/08/24 05:56:24;;;;;;;65.57;25.80;;;;;;;17.84;59.58;93578.59;5083817;28;20021;-45
2021/08/24 06:11:44;;;;;;;50.80;16.25;;;;;;;19.14;54.13;93569.13;5105616;27;20620;-46
2021/08/24 06:14:10;;;;;;;25.38;15.48;;;;;;;19.12;55.18;93569.00;5106742;28;20511;-46
2021/08/24 06:16:39;;;;;;;37.17;19.17;;;;;;;19.15;56.21;93567.78;5104421;28;20507;-47
2021/08/24 06:19:05;;;;;;;62.63;24.83;;;;;;;19.13;54.96;93562.78;5087262;28;20548;-45
2021/08/24 06:21:31;;;;;;;36.15;21.02;;;;;;;19.21;54.23;93560.50;5093750;28;20028;-45
2021/08/24 06:23:57;;;;;;;39.97;28.15;;;;;;;19.14;54.07;93552.34;5108011;28;20553;-45
2021/08/24 06:26:22;;;;;;;36.90;28.23;;;;;;;19.23;54.02;93563.44;5107977;28;20015;-45
2021/08/24 06:28:48;;;;;;;36.38;23.10;;;;;;;19.30;54.83;93567.34;5107668;28;20507;-45
2021/08/24 06:31:17;;;;;;;32.63;24.55;;;;;;;19.45;54.28;93558.53;5107874;28;20024;-46
2021/08/24 06:33:43;;;;;;;50.70;29.77;;;;;;;19.60;53.48;93549.69;5103592;28;20044;-44
2021/08/24 06:36:09;;;;;;;38.60;25.48;;;;;;;19.76;52.40;93556.31;5086248;28;20040;-44
2021/08/24 06:38:35;;;;;;;34.53;26.77;;;;;;;19.73;52.75;93539.97;5087472;28;20111;-44
2021/08/24 06:41:01;;;;;;;53.33;30.98;;;;;;;19.95;52.97;93550.47;5087437;28;20507;-46
2021/08/24 06:43:27;;;;;;;56.10;32.47;;;;;;;20.10;52.50;93549.97;5087574;28;20020;-45
2021/08/24 06:45:53;;;;;;;48.85;31.48;;;;;;;20.24;52.12;93548.06;5087154;28;20020;-45
2021/08/24 06:48:19;;;;;;;44.17;27.23;;;;;;;20.25;51.85;93520.75;5087203;28;20020;-46
2021/08/24 06:50:44;;;;;;;49.92;34.30;;;;;;;20.66;50.88;93535.81;5074280;28;20100;-44
2021/08/24 06:53:10;;;;;;;45.83;32.47;;;;;;;20.90;50.98;93537.19;5066749;28;20024;-44
2021/08/24 06:55:38;;;;;;;54.60;37.20;;;;;;;21.11;50.83;93537.03;5063631;28;20048;-45
2021/08/24 06:58:05;;;;;;;84.35;48.08;;;;;;;21.24;48.48;93540.53;5063352;28;20033;-45
2021/08/24 07:00:31;;;;;;;69.10;42.90;;;;;;;21.50;48.61;93533.56;5064477;28;20024;-44
2021/08/24 07:02:57;;;;;;;71.75;48.42;;;;;;;21.81;48.19;93537.38;5066130;28;20033;-41
2021/08/24 07:05:26;;;;;;;89.25;75.75;;;;;;;22.09;47.45;93535.38;5066169;28;20020;-43
2021/08/24 07:07:51;;;;;;;344.70;308.23;;;;;;;22.34;45.57;93534.56;5069529;28;20012;-44
2021/08/24 07:10:17;;;;;;;242.68;214.65;;;;;;;22.51;46.10;93536.88;5083601;28;20039;-44
2021/08/24 07:12:43;;;;;;;363.40;323.88;;;;;;;22.57;45.78;93532.28;5073234;28;20052;-42
2021/08/24 07:15:11;;;;;;;553.00;453.30;;;;;;;22.66;45.15;93535.53;5072950;28;20051;-44
2021/08/24 07:17:36;;;;;;;996.03;749.60;;;;;;;22.70;44.66;93532.94;5072988;28;20493;-45
2021/08/24 07:20:04;;;;;;;779.50;642.63;;;;;;;22.92;44.97;93531.22;5079303;28;20102;-45
2021/08/24 07:22:30;;;;;;;1999.90;999.90;;;;;;;24.00;42.63;93525.16;5071323;28;20024;-44
2021/08/24 07:24:55;;;;;;;1999.90;999.90;;;;;;;25.67;38.97;93525.97;5071128;28;20027;-42
2021/08/24 07:27:21;;;;;;;1244.50;999.53;;;;;;;27.29;34.58;93524.81;5070701;28;20202;-41
2021/08/24 07:29:46;;;;;;;1027.63;926.45;;;;;;;28.57;32.62;93523.84;5071000;28;20017;-42
2021/08/24 07:32:12;;;;;;;987.72;891.00;;;;;;;29.40;30.14;93523.97;5070729;28;20020;-42
2021/08/24 07:34:37;;;;;;;974.75;873.90;;;;;;;30.99;27.96;93522.59;5071257;28;20108;-42
2021/08/24 07:37:03;;;;;;;1000.20;905.10;;;;;;;32.58;24.84;93522.38;5071828;28;20056;-43
2021/08/24 07:39:29;;;;;;;1034.32;943.30;;;;;;;33.32;24.07;93524.69;5072666;28;20478;-42
2021/08/24 07:41:55;;;;;;;1017.15;929.80;;;;;;;34.21;21.68;93515.47;5072701;28;20029;-42
2021/08/24 07:44:24;;;;;;;1029.85;945.50;;;;;;;35.49;20.62;93523.25;5072289;28;20584;-42
2021/08/24 07:46:50;;;;;;;886.17;824.30;;;;;;;35.68;19.25;93515.34;5072169;28;20028;-43
2021/08/24 07:49:16;;;;;;;855.17;796.95;;;;;;;34.59;19.20;93520.03;5072232;28;20154;-42
2021/08/24 07:51:42;;;;;;;883.70;823.58;;;;;;;33.92;18.32;93522.38;5072299;28;20108;-44
2021/08/24 07:54:08;;;;;;;902.17;840.10;;;;;;;34.09;18.00;93511.81;5072215;28;20570;-43
2021/08/24 07:56:33;;;;;;;944.40;878.08;;;;;;;32.80;20.18;93514.09;5072105;28;20024;-43
2021/08/24 07:58:59;;;;;;;1013.75;930.72;;;;;;;31.05;19.13;93511.31;5072328;28;20020;-42
2021/08/24 08:01:25;;;;;;;1001.95;925.00;;;;;;;30.94;18.87;93501.13;5071963;28;20579;-42
2021/08/24 08:03:50;;;;;;;999.30;922.33;;;;;;;31.06;19.45;93512.75;5072325;28;20020;-43
2021/08/24 08:06:16;;;;;;;1000.38;925.85;;;;;;;31.79;20.87;93508.34;5072269;28;20515;-46
2021/08/24 08:08:41;;;;;;;1000.83;922.13;;;;;;;31.60;18.01;93504.44;5067612;28;20048;-45
2021/08/24 08:11:07;;;;;;;1046.40;960.53;;;;;;;30.75;19.02;93510.00;5071731;28;20111;-43
2021/08/24 08:13:32;;;;;;;1118.15;999.90;;;;;;;30.59;19.36;93502.56;5071647;28;20414;-43
2021/08/24 08:15:58;;;;;;;1036.82;952.38;;;;;;;30.54;19.11;93503.88;5071878;28;20032;-43
2021/08/24 08:18:23;;;;;;;976.22;902.58;;;;;;;31.40;19.09;93507.69;5071932;28;20016;-44
2021/08/24 08:20:49;;;;;;;967.53;892.53;;;;;;;32.49;17.74;93500.09;5071549;28;20043;-43
2021/08/24 08:23:16;;;;;;;926.22;855.15;;;;;;;33.12;16.97;93507.28;5070698;28;20039;-43
2021/08/24 08:25:42;;;;;;;1038.10;951.20;;;;;;;31.54;18.61;93503.63;5071800;28;20017;-44
2021/08/24 08:28:08;;;;;;;930.30;856.90;;;;;;;32.85;17.34;93509.13;5071535;28;20036;-44
2021/08/24 08:30:34;;;;;;;884.65;817.13;;;;;;;33.69;17.02;93512.19;5070250;28;20477;-44
2021/08/24 08:33:01;;;;;;;985.63;904.85;;;;;;;33.00;17.02;93507.19;5071721;28;20020;-44
2021/08/24 08:35:28;;;;;;;935.05;861.65;;;;;;;33.21;17.51;93508.81;5071690;28;20020;-47
2021/08/24 08:37:53;;;;;;;928.92;854.72;;;;;;;33.49;16.23;93503.38;5071155;28;20504;-43
2021/08/24 08:40:38;;;;;;;909.83;838.35;;;;;;;34.98;16.01;93505.09;5071246;28;20043;-42
2021/08/24 08:43:32;;;;;;;888.85;817.20;;;;;;;35.86;14.96;93491.66;5069971;28;20028;-43
2021/08/24 08:46:02;;;;;;;876.17;807.63;;;;;;;37.06;13.81;93497.19;5071468;28;20023;-44
2021/08/24 08:49:09;;;;;;;831.17;766.17;;;;;;;38.95;12.68;93500.72;5070264;28;20538;-43
2021/08/24 08:51:38;;;;;;;787.30;729.28;;;;;;;40.25;11.94;93496.72;5042231;28;20398;-43
2021/08/24 08:54:20;;;;;;;815.33;749.92;;;;;;;40.05;11.62;93489.81;5071322;28;20025;-45
2021/08/24 08:56:48;;;;;;;861.17;792.58;;;;;;;38.34;12.91;93491.28;5079822;28;20111;-43
2021/08/24 08:59:16;;;;;;;895.70;823.75;;;;;;;36.40;13.69;93483.00;5070003;28;20408;-43
2021/08/24 09:02:18;;;;;;;908.80;831.60;;;;;;;38.09;13.42;93482.13;5086562;28;20032;-44
2021/08/24 09:04:47;;;;;;;896.55;820.30;;;;;;;39.41;11.99;93473.44;5087954;28;20026;-44
2021/08/24 09:07:39;;;;;;;884.13;811.40;;;;;;;40.00;11.79;93485.56;5089102;28;20016;-45
2021/08/24 09:10:06;;;;;;;845.13;772.17;;;;;;;40.91;11.64;93481.06;5048837;28;20090;-45
2021/08/24 09:12:34;;;;;;;868.83;791.03;;;;;;;39.92;11.17;93461.81;5048885;28;20520;-45
2021/08/24 09:15:00;;;;;;;886.10;808.43;;;;;;;39.74;11.44;93483.06;5048737;28;20434;-46
2021/08/24 09:17:36;;;;;;;846.55;774.85;;;;;;;40.52;10.95;93474.56;5048446;28;20033;-44
2021/08/24 09:20:32;;;;;;;848.47;778.78;;;;;;;40.69;11.07;93469.88;5049465;28;20021;-46
2021/08/24 09:22:59;;;;;;;98.40;94.32;;;;;;;41.57;10.49;93473.13;5037102;28;20111;-46
2021/08/24 09:25:43;;;;;;;86.78;83.15;;;;;;;41.50;10.21;93466.03;5050747;28;20021;-46
2021/08/24 09:28:20;;;;;;;77.78;74.47;;;;;;;41.40;10.78;93472.06;5050715;28;20037;-44
2021/08/24 09:30:45;;;;;;;38.92;37.17;;;;;;;41.21;10.67;93463.03;5049612;28;20032;-44
2021/08/24 09:33:12;;;;;;;68.20;65.30;;;;;;;41.80;10.79;93461.75;5050189;28;20031;-45
2021/08/24 09:35:45;;;;;;;53.45;51.10;;;;;;;42.59;10.48;93461.22;5050607;28;20537;-46
2021/08/24 09:38:28;;;;;;;75.05;71.85;;;;;;;43.32;9.79;93447.56;5050688;28;20025;-45
2021/08/24 09:40:56;;;;;;;8.10;7.70;;;;;;;39.78;11.48;93453.38;5050236;28;20581;-47
2021/08/24 09:43:34;;;;;;;8.80;8.30;;;;;;;40.27;11.00;93459.06;5050216;28;20021;-46
2021/08/24 09:46:17;;;;;;;9.25;8.75;;;;;;;40.84;11.08;93450.78;5050598;28;20029;-45
2021/08/24 09:48:50;;;;;;;9.82;9.32;;;;;;;41.19;11.31;93451.50;5050484;28;20112;-44
2021/08/24 09:51:24;;;;;;;10.98;10.48;;;;;;;41.87;10.57;93449.25;5050474;28;20021;-44
2021/08/24 09:53:55;;;;;;;15.43;14.63;;;;;;;42.67;10.16;93446.47;5050501;28;20025;-44
2021/08/24 09:56:23;;;;;;;13.02;12.23;;;;;;;43.38;8.94;93444.47;5048997;28;20036;-44
2021/08/24 09:58:48;;;;;;;23.65;22.55;;;;;;;43.96;9.53;93441.94;5049254;28;20024;-44
2021/08/24 10:01:16;;;;;;;22.60;21.50;;;;;;;44.12;8.84;93433.38;5050314;28;20406;-47
2021/08/24 10:04:03;;;;;;;30.85;29.48;;;;;;;44.11;9.14;93434.19;5050385;28;20017;-46
2021/08/24 10:06:32;;;;;;;23.33;22.13;;;;;;;44.51;9.17;93424.06;5070247;28;20029;-45
2021/08/24 10:09:23;;;;;;;27.60;26.40;;;;;;;44.36;9.16;93426.75;5070049;28;20021;-44
2021/08/24 10:11:49;;;;;;;25.95;24.85;;;;;;;44.29;8.71;93416.78;5070134;28;20542;-44
2021/08/24 10:14:27;;;;;;;29.50;28.23;;;;;;;44.93;8.79;93416.75;5070299;28;20104;-46
2021/08/24 10:16:57;;;;;;;28.35;26.77;;;;;;;44.92;8.50;93412.38;5068971;28;20556;-45
2021/08/24 10:19:27;;;;;;;37.88;34.25;;;;;;;45.05;8.35;93421.41;5069806;28;20020;-46
2021/08/24 10:22:00;;;;;;;31.70;30.15;;;;;;;44.82;8.81;93417.88;5068675;28;20035;-45
2021/08/24 10:24:37;;;;;;;28.70;26.48;;;;;;;44.80;8.22;93407.03;5070165;28;20040;-47
2021/08/24 10:27:24;;;;;;;24.02;22.92;;;;;;;44.53;8.59;93414.56;5048676;28;20039;-46
2021/08/24 10:29:51;;;;;;;16.73;15.97;;;;;;;44.58;8.59;93407.09;5050169;28;20460;-45
2021/08/24 10:32:27;;;;;;;21.85;20.85;;;;;;;44.84;8.54;93409.06;5050077;28;20039;-44
2021/08/24 10:34:53;;;;;;;19.60;18.27;;;;;;;44.83;8.73;93399.63;5062782;28;20028;-48
2021/08/24 10:37:24;;;;;;;8.90;8.10;;;;;;;43.55;9.02;93405.41;5054683;28;20058;-44
2021/08/24 10:40:14;;;;;;;10.65;10.20;;;;;;;43.98;9.24;93406.94;5057398;28;20036;-44
2021/08/24 10:42:42;;;;;;;7.05;6.45;;;;;;;43.16;9.66;93402.25;5059614;28;20129;-45
2021/08/24 10:45:25;;;;;;;8.18;7.78;;;;;;;43.52;9.51;93395.31;5062562;28;20449;-46
2021/08/24 10:47:54;;;;;;;4.28;3.92;;;;;;;41.43;9.50;93395.91;5063682;28;20028;-45
2021/08/24 10:50:52;;;;;;;3.33;2.30;;;;;;;38.58;11.97;93402.28;5070364;28;20028;-45
2021/08/24 10:53:36;;;;;;;;;;;;;;;39.19;13.32;93395.75;5055227;28;20040;-46
2021/08/24 10:56:20;;;;;;;2.70;2.50;;;;;;;37.45;13.15;93401.97;5057209;28;19909;-45
2021/08/24 10:59:07;;;;;;;2.55;2.35;;;;;;;37.98;13.22;93391.41;5066103;28;20029;-44
2021/08/24 11:01:53;;;;;;;2.85;2.63;;;;;;;38.31;13.18;93383.16;5064268;28;20035;-44
2021/08/24 11:04:45;;;;;;;4.10;2.88;;;;;;;39.26;13.22;93376.88;5071249;28;20467;-44
2021/08/24 11:07:32;;;;;;;4.10;3.53;;;;;;;40.03;12.41;93370.56;5069431;28;20032;-46
2021/08/24 11:10:21;;;;;;;5.80;4.13;;;;;;;40.54;11.82;93379.00;5049392;28;20550;-45
2021/08/24 11:12:50;;;;;;;3.92;3.63;;;;;;;40.55;12.00;93372.47;5051878;28;20085;-45
2021/08/24 11:15:36;;;;;;;3.45;2.85;;;;;;;39.16;11.68;93371.94;5069473;28;20032;-45
2021/08/24 11:18:29;;;;;;;4.22;3.30;;;;;;;38.42;13.12;93373.63;5071076;28;20040;-44
2021/08/24 11:21:13;;;;;;;3.38;2.80;;;;;;;38.75;13.63;93362.41;5070360;28;20032;-44
2021/08/24 11:23:59;;;;;;;10.27;3.75;;;;;;;39.46;13.10;93356.34;5070456;28;20119;-46
2021/08/24 11:41:23;;;;;;;6.57;6.07;;;;;;;39.82;13.03;93364.41;5072614;27;20827;-47
2021/08/24 11:43:54;;;;;;;5.60;2.97;;;;;;;39.59;12.74;93356.88;5077589;28;20044;-46
2021/08/24 11:46:32;;;;;;;4.57;3.90;;;;;;;38.85;13.67;93355.78;5072086;28;20077;-47
2021/08/24 11:49:10;;;;;;;3.55;3.25;;;;;;;39.18;13.46;93365.44;5081298;28;20020;-47
2021/08/24 11:51:37;;;;;;;3.38;3.08;;;;;;;38.58;13.49;93352.50;5083167;28;20040;-47
2021/08/24 11:54:15;;;;;;;3.55;3.25;;;;;;;37.85;14.45;93361.28;5084583;28;20256;-47
2021/08/24 11:56:54;;;;;;;6.97;3.22;;;;;;;38.24;14.24;93358.69;5084670;28;20032;-48
2021/08/24 11:59:25;;;;;;;6.45;3.17;;;;;;;38.10;14.29;93353.78;5063775;28;20111;-49
2021/08/24 12:01:51;;;;;;;7.03;4.00;;;;;;;37.97;14.92;93352.47;5066701;28;20039;-48
2021/08/24 12:04:21;;;;;;;3.92;3.33;;;;;;;38.09;15.76;93368.94;5082329;28;20085;-48
2021/08/24 12:06:50;;;;;;;7.50;4.30;;;;;;;37.66;14.99;93365.75;5074659;28;20016;-47
2021/08/24 12:09:19;;;;;;;;;;;;;;;37.51;15.21;93359.38;5074282;28;20024;-48
2021/08/24 12:11:49;;;;;;;7.97;3.45;;;;;;;37.24;14.50;93350.25;5078792;28;19927;-47
2021/08/24 12:14:33;;;;;;;5.75;3.55;;;;;;;37.06;15.22;93347.47;5079604;28;20568;-48
2021/08/24 12:17:22;;;;;;;18.13;4.72;;;;;;;36.98;15.77;93353.31;5074888;28;20062;-47
2021/08/24 12:19:54;;;;;;;3.40;3.10;;;;;;;36.43;14.26;93329.84;5077412;28;20024;-47
2021/08/24 12:22:36;;;;;;;6.22;3.42;;;;;;;36.57;15.07;93346.34;5082520;28;20028;-49
2021/08/24 12:25:05;;;;;;;9.00;3.58;;;;;;;36.74;15.48;93350.56;5069649;28;20507;-50
2021/08/24 12:27:30;;;;;;;3.40;3.10;;;;;;;36.52;14.46;93347.78;5072699;28;20400;-49
2021/08/24 12:30:14;;;;;;;3.00;2.72;;;;;;;36.14;15.07;93333.56;5080291;28;20028;-48
2021/08/24 12:32:39;;;;;;;3.63;3.33;;;;;;;35.58;15.65;93343.03;5076531;28;20035;-47
2021/08/24 12:35:29;;;;;;;5.40;3.33;;;;;;;35.55;16.13;93339.44;5076490;28;20032;-46